Josephine, Texas
Current Conditions -  °F | °C
As of 12:55 PM on Wednesday 26 Nov 2014 (Local Time) from KF46 Reporting Station
Clear Clear  
Wind Chill: 63°   Ceiling: Unl
Heat Index: 63°   Visibility: 10mi
Dew Point: 33°   Wind: 9mph
Humidity: 32%   Direction: 340°NNW
Pressure: 30.14"   Gusts: 21mph
Location:  33.06°N, 96.31°W
Report Text: KF46 261855Z AUTO 34008G18KT 310V020 10SM CLR 17/01 A3014 RMK AO2 T01740005
Loading
Personal Weather Stations






























Interactive Weather Map New forecast layout! Learn more

10-Day Weather Forecast

Advertisements
Track Severe Weather on mobile